首页
METAR-TAF:

METAR-TAF

机场 :

热那亚-克里斯托弗·哥伦布机场

热那亚, 意大利

纬度: 44-25N, 经度: 008-51E, 海拔: 2米

当前天气观测

该预报发布于37分钟前的00:50 UTC
风速3节,风向,在北转西北东北之间变化
温度 23°C
湿度 65%
气压 1014 hPa
能见度10公里或以上
1500米以下无云,无积雨云

METAR: LIMJ 180050Z 36003KT 330V040 CAVOK 23/16 Q1014

时间: 03:27 (01:27 UTC)

预报

该预报发布于2小时和27分钟前的23:00 UTC
预报有效从18日的 00点(UTC)到 18日的 24点(UTC)
风速5节,风向多变
能见度10公里或以上
1500米以下无云,无积雨云

TAF: LIMJ 172300Z 1800/1824 VRB05KT CAVOK

超过4000个机场的气象观测和天气预报(METAR&TAF报告)。

可查询的气象台以黄色和红色小点在地图上表示。

将鼠标移到小点上方,可查看气象台名称。

然后点击查看天气观测和预报。

如需切换地图:点击带黑十字的绿色按钮放大地图;点击带横线的绿色按钮缩小地图;或者点击绿色箭头查看邻近地区的地图。


METAR-TAF: